Time;durP1;ratioP1;P1;durP2;ratioP2;P2;SDS_P1;SDS_P2;PMS_P1;PMS_P2;Temp;Humidity;BMP_temperature;BMP_pressure;BME280_temperature;BME280_humidity;BME280_pressure;Samples;Min_cycle;Max_cycle;Signal;HPM_P1;HPM_P2
2023/04/29 00:01:04;;;;;;;49.97;21.27;;;;;;;;;;5022135;28;20029;-60
2023/04/29 00:03:31;;;;;;;47.80;22.10;;;;;;;;;;5026208;28;20372;-61
2023/04/29 00:05:57;;;;;;;49.28;22.13;;;;;;;;;;5024147;28;20044;-61
2023/04/29 00:08:23;;;;;;;47.03;20.65;;;;;;;;;;5022408;28;20108;-60
2023/04/29 00:10:49;;;;;;;48.90;21.50;;;;;;;;;;5026859;28;20059;-61
2023/04/29 00:13:14;;;;;;;53.22;22.55;;;;;;;;;;5016045;28;20038;-60
2023/04/29 00:15:40;;;;;;;55.28;22.90;;;;;;;;;;5014790;28;20037;-61
2023/04/29 00:18:05;;;;;;;57.88;23.67;;;;;;;;;;5015914;28;20456;-61
2023/04/29 00:20:31;;;;;;;59.08;24.42;;;;;;;;;;5019797;28;20116;-60
2023/04/29 00:22:57;;;;;;;56.00;23.98;;;;;;;;;;5014643;28;20045;-60
2023/04/29 00:25:22;;;;;;;63.88;23.67;;;;;;;;;;5027485;28;20460;-60
2023/04/29 00:27:48;;;;;;;65.38;23.00;;;;;;;;;;5019024;28;20654;-61
2023/04/29 00:30:13;;;;;;;75.03;24.27;;;;;;;;;;5021560;28;20495;-60
2023/04/29 00:32:39;;;;;;;76.25;25.17;;;;;;;;;;5018286;28;20029;-60
2023/04/29 00:35:06;;;;;;;83.72;25.92;;;;;;;;;;5029059;28;20029;-60
2023/04/29 00:37:31;;;;;;;84.95;26.63;;;;;;;;;;5031236;28;20495;-60
2023/04/29 00:39:57;;;;;;;92.95;27.98;;;;;;;;;;5026141;28;20029;-61
2023/04/29 00:42:24;;;;;;;86.03;26.80;;;;;;;;;;5016666;28;20392;-61
2023/04/29 00:44:50;;;;;;;97.43;29.65;;;;;;;;;;5029838;28;20534;-61
2023/04/29 00:47:15;;;;;;;93.22;29.55;;;;;;;;;;5023617;28;20042;-61
2023/04/29 00:49:40;;;;;;;88.10;27.48;;;;;;;;;;5015491;28;20121;-60
2023/04/29 00:52:09;;;;;;;87.05;27.65;;;;;;;;;;5029982;28;20365;-60
2023/04/29 00:54:36;;;;;;;92.25;29.23;;;;;;;;;;5030588;28;20039;-60
2023/04/29 00:57:03;;;;;;;86.90;26.60;;;;;;;;;;5021081;28;20046;-61
2023/04/29 00:59:31;;;;;;;91.80;28.65;;;;;;;;;;5033255;28;20360;-60
2023/04/29 01:02:02;;;;;;;87.65;28.17;;;;;;;;;;5013372;28;20037;-60
2023/04/29 01:04:29;;;;;;;92.00;28.70;;;;;;;;;;5022138;28;20029;-60
2023/04/29 01:07:13;;;;;;;96.88;30.83;;;;;;;;;;5013856;28;20539;-60
2023/04/29 01:10:00;;;;;;;88.93;27.83;;;;;;;;;;5018104;28;20029;-59
2023/04/29 01:12:35;;;;;;;98.97;29.90;;;;;;;;;;5020140;28;20049;-59
2023/04/29 01:15:04;;;;;;;103.57;31.20;;;;;;;;;;5025331;28;20133;-60
2023/04/29 01:17:36;;;;;;;102.00;28.65;;;;;;;;;;5029507;28;20032;-60
2023/04/29 01:20:03;;;;;;;105.45;31.65;;;;;;;;;;5030996;28;20037;-61
2023/04/29 01:22:28;;;;;;;105.15;29.65;;;;;;;;;;5020570;28;20036;-61
2023/04/29 01:24:54;;;;;;;123.85;31.15;;;;;;;;;;5015743;28;20029;-61
2023/04/29 01:27:38;;;;;;;132.48;35.30;;;;;;;;;;5023763;28;20485;-61
2023/04/29 01:30:18;;;;;;;132.27;34.13;;;;;;;;;;5028474;28;20038;-61
2023/04/29 01:33:01;;;;;;;108.82;32.03;;;;;;;;;;5021552;28;20475;-60
2023/04/29 01:36:05;;;;;;;111.38;33.03;;;;;;;;;;5013855;28;20037;-60
2023/04/29 01:38:40;;;;;;;107.60;31.27;;;;;;;;;;5020054;28;20057;-60
2023/04/29 01:41:14;;;;;;;115.90;33.47;;;;;;;;;;5022492;28;20030;-60
2023/04/29 01:43:40;;;;;;;125.70;34.60;;;;;;;;;;5012312;28;20447;-60
2023/04/29 01:46:08;;;;;;;129.10;35.85;;;;;;;;;;5011995;28;20034;-60
2023/04/29 01:48:35;;;;;;;122.97;34.38;;;;;;;;;;5013696;28;20034;-60
2023/04/29 01:51:01;;;;;;;138.88;36.45;;;;;;;;;;5024488;28;20112;-60
2023/04/29 01:53:26;;;;;;;129.55;35.88;;;;;;;;;;5016088;28;20149;-60
2023/04/29 01:55:52;;;;;;;131.55;35.17;;;;;;;;;;5025698;28;20124;-60
2023/04/29 01:58:17;;;;;;;137.45;37.15;;;;;;;;;;5031037;28;20099;-60
2023/04/29 02:00:43;;;;;;;131.93;35.13;;;;;;;;;;5020916;28;20061;-60
2023/04/29 02:03:08;;;;;;;128.85;35.50;;;;;;;;;;5012926;28;20030;-60
2023/04/29 02:05:34;;;;;;;120.40;33.53;;;;;;;;;;5024456;28;20029;-60
2023/04/29 02:08:00;;;;;;;117.63;34.08;;;;;;;;;;5012644;28;20030;-61
2023/04/29 02:10:26;;;;;;;115.30;32.00;;;;;;;;;;5026819;28;20051;-60
2023/04/29 02:12:52;;;;;;;115.70;32.10;;;;;;;;;;5015370;28;20036;-60
2023/04/29 02:15:18;;;;;;;115.45;31.95;;;;;;;;;;5012684;28;20025;-60
2023/04/29 02:17:43;;;;;;;108.28;31.83;;;;;;;;;;5011836;28;20057;-61
2023/04/29 02:20:09;;;;;;;98.95;29.52;;;;;;;;;;5026895;28;20498;-60
2023/04/29 02:22:35;;;;;;;102.43;30.00;;;;;;;;;;5014991;28;20025;-60
2023/04/29 02:25:00;;;;;;;87.47;26.65;;;;;;;;;;5021302;28;20034;-60
2023/04/29 02:27:26;;;;;;;79.45;24.58;;;;;;;;;;5015716;28;20040;-60
2023/04/29 02:29:51;;;;;;;77.43;24.60;;;;;;;;;;5010703;28;20126;-60
2023/04/29 02:32:18;;;;;;;82.78;24.92;;;;;;;;;;5018077;28;20038;-60
2023/04/29 02:34:44;;;;;;;87.20;24.92;;;;;;;;;;5012397;28;20131;-60
2023/04/29 02:37:10;;;;;;;81.00;25.02;;;;;;;;;;5022795;28;20053;-60
2023/04/29 02:39:35;;;;;;;90.07;24.77;;;;;;;;;;5032153;28;20037;-60
2023/04/29 02:42:01;;;;;;;80.55;24.25;;;;;;;;;;5028446;28;20041;-60
2023/04/29 02:44:27;;;;;;;71.47;22.65;;;;;;;;;;5027593;28;20392;-60
2023/04/29 02:46:53;;;;;;;71.95;22.27;;;;;;;;;;5016448;28;20064;-60
2023/04/29 02:49:18;;;;;;;74.13;22.67;;;;;;;;;;5020670;28;20036;-60
2023/04/29 02:51:43;;;;;;;69.95;22.23;;;;;;;;;;5011545;28;20033;-60
2023/04/29 02:54:10;;;;;;;64.07;21.48;;;;;;;;;;5012218;28;20030;-60
2023/04/29 02:56:35;;;;;;;74.25;22.88;;;;;;;;;;5022625;28;20033;-59
2023/04/29 02:59:01;;;;;;;64.13;21.20;;;;;;;;;;5031031;28;20026;-60
2023/04/29 03:01:26;;;;;;;70.97;21.77;;;;;;;;;;5023970;28;20034;-60
2023/04/29 03:03:52;;;;;;;65.47;22.83;;;;;;;;;;5025558;28;20399;-61
2023/04/29 03:06:18;;;;;;;76.13;23.17;;;;;;;;;;5027738;28;20057;-60
2023/04/29 03:08:43;;;;;;;69.10;22.25;;;;;;;;;;5018099;28;20361;-60
2023/04/29 03:11:08;;;;;;;66.88;22.42;;;;;;;;;;5019167;28;20112;-60
2023/04/29 03:13:34;;;;;;;66.25;22.20;;;;;;;;;;5012090;28;20034;-60
2023/04/29 03:16:00;;;;;;;67.88;23.38;;;;;;;;;;5018410;28;20197;-59
2023/04/29 03:18:25;;;;;;;66.07;22.33;;;;;;;;;;5011524;28;20037;-59
2023/04/29 03:20:51;;;;;;;72.95;23.55;;;;;;;;;;5022977;28;20067;-59
2023/04/29 03:23:16;;;;;;;73.47;23.30;;;;;;;;;;5015522;28;20034;-60
2023/04/29 03:25:41;;;;;;;69.47;23.20;;;;;;;;;;5023280;28;20037;-60
2023/04/29 03:28:07;;;;;;;76.03;24.10;;;;;;;;;;5030030;28;20030;-61
2023/04/29 03:30:32;;;;;;;69.50;24.65;;;;;;;;;;5025783;28;20041;-62
2023/04/29 03:32:58;;;;;;;75.70;24.17;;;;;;;;;;5014638;28;20971;-62
2023/04/29 03:35:23;;;;;;;70.68;25.05;;;;;;;;;;5023530;28;20056;-61
2023/04/29 03:37:49;;;;;;;71.93;25.10;;;;;;;;;;5034306;28;20049;-61
2023/04/29 03:40:14;;;;;;;76.07;24.17;;;;;;;;;;5034512;28;20075;-61
2023/04/29 03:42:40;;;;;;;70.72;23.63;;;;;;;;;;5035467;28;20042;-62
2023/04/29 03:45:06;;;;;;;73.05;24.52;;;;;;;;;;5026690;28;20088;-62
2023/04/29 03:47:31;;;;;;;73.35;24.38;;;;;;;;;;5034847;28;20040;-61
2023/04/29 03:49:57;;;;;;;72.82;24.42;;;;;;;;;;5029635;28;20029;-61
2023/04/29 03:52:22;;;;;;;71.20;23.38;;;;;;;;;;5015777;28;20496;-61
2023/04/29 03:54:48;;;;;;;75.22;24.73;;;;;;;;;;5013277;28;20045;-61
2023/04/29 03:57:13;;;;;;;68.20;23.38;;;;;;;;;;5022132;28;20052;-61
2023/04/29 03:59:38;;;;;;;66.95;23.85;;;;;;;;;;5024100;28;20029;-61
2023/04/29 04:02:04;;;;;;;61.88;24.08;;;;;;;;;;5014436;28;20399;-61
2023/04/29 04:04:29;;;;;;;69.40;24.45;;;;;;;;;;5020635;28;20065;-61
2023/04/29 04:06:55;;;;;;;68.30;24.70;;;;;;;;;;5032737;28;20447;-61
2023/04/29 04:09:20;;;;;;;75.70;24.65;;;;;;;;;;5028687;28;20148;-61
2023/04/29 04:11:46;;;;;;;66.82;23.88;;;;;;;;;;5019895;28;20037;-61
2023/04/29 04:14:11;;;;;;;67.93;24.23;;;;;;;;;;5032493;28;20188;-60
2023/04/29 04:16:37;;;;;;;74.50;25.10;;;;;;;;;;5015175;28;20034;-60
2023/04/29 04:19:02;;;;;;;70.57;25.95;;;;;;;;;;5013664;28;20034;-60
2023/04/29 04:21:29;;;;;;;75.03;24.10;;;;;;;;;;5033884;28;20034;-60
2023/04/29 04:23:54;;;;;;;71.88;25.08;;;;;;;;;;5020333;28;20038;-60
2023/04/29 04:26:20;;;;;;;70.28;25.48;;;;;;;;;;5023127;28;20048;-60
2023/04/29 04:28:46;;;;;;;64.95;24.40;;;;;;;;;;5032063;28;20040;-60
2023/04/29 04:31:14;;;;;;;69.40;24.40;;;;;;;;;;5021129;28;20041;-61
2023/04/29 04:33:40;;;;;;;70.13;25.83;;;;;;;;;;5014336;28;20041;-60
2023/04/29 04:36:06;;;;;;;72.38;25.35;;;;;;;;;;5021197;28;20033;-60
2023/04/29 04:38:32;;;;;;;60.95;23.23;;;;;;;;;;5034054;28;20187;-61
2023/04/29 04:40:57;;;;;;;64.50;24.85;;;;;;;;;;5026596;28;20125;-61
2023/04/29 04:43:23;;;;;;;61.53;23.50;;;;;;;;;;5016902;28;20121;-60
2023/04/29 04:45:48;;;;;;;64.75;24.98;;;;;;;;;;5018271;28;20409;-60
2023/04/29 04:48:14;;;;;;;59.92;24.02;;;;;;;;;;5020588;28;20453;-61
2023/04/29 04:50:39;;;;;;;57.50;23.27;;;;;;;;;;5021872;28;20030;-60
2023/04/29 04:53:05;;;;;;;65.05;24.77;;;;;;;;;;5043759;28;20612;-60
2023/04/29 04:55:32;;;;;;;63.83;24.27;;;;;;;;;;5034234;28;20032;-61
2023/04/29 04:57:57;;;;;;;61.85;23.40;;;;;;;;;;5033697;28;20033;-61
2023/04/29 05:00:23;;;;;;;57.90;23.83;;;;;;;;;;5030300;28;20029;-60
2023/04/29 05:02:48;;;;;;;59.05;24.60;;;;;;;;;;5021671;28;20042;-60
2023/04/29 05:05:14;;;;;;;57.13;23.88;;;;;;;;;;5031322;28;20035;-60
2023/04/29 05:07:39;;;;;;;54.50;24.17;;;;;;;;;;5032787;28;20435;-61
2023/04/29 05:10:08;;;;;;;62.42;23.98;;;;;;;;;;5020015;28;20115;-61
2023/04/29 05:12:34;;;;;;;58.00;25.23;;;;;;;;;;5036394;28;20025;-61
2023/04/29 05:15:00;;;;;;;49.72;22.15;;;;;;;;;;5036570;28;20120;-61
2023/04/29 05:17:25;;;;;;;54.72;22.98;;;;;;;;;;5034676;28;20037;-61
2023/04/29 05:19:51;;;;;;;56.72;24.25;;;;;;;;;;5031261;28;20472;-61
2023/04/29 05:22:16;;;;;;;53.08;23.35;;;;;;;;;;5033803;28;20515;-60
2023/04/29 05:24:42;;;;;;;50.50;23.80;;;;;;;;;;5031883;28;20099;-60
2023/04/29 05:27:07;;;;;;;52.65;23.40;;;;;;;;;;5033227;28;20063;-61
2023/04/29 05:29:32;;;;;;;49.45;23.40;;;;;;;;;;5031373;28;20135;-60
2023/04/29 05:31:58;;;;;;;51.65;23.33;;;;;;;;;;5032510;28;20494;-60
2023/04/29 05:34:23;;;;;;;46.53;23.70;;;;;;;;;;5032146;28;20471;-61
2023/04/29 05:36:49;;;;;;;55.90;23.13;;;;;;;;;;5032743;28;20137;-61
2023/04/29 05:39:14;;;;;;;50.50;22.90;;;;;;;;;;5032090;28;20379;-61
2023/04/29 05:41:40;;;;;;;49.50;23.55;;;;;;;;;;5033265;28;20029;-61
2023/04/29 05:44:05;;;;;;;50.67;23.60;;;;;;;;;;5031037;28;20127;-61
2023/04/29 05:46:30;;;;;;;49.75;23.65;;;;;;;;;;5032681;28;20539;-61
2023/04/29 05:48:56;;;;;;;44.80;22.15;;;;;;;;;;5031070;28;20025;-61
2023/04/29 05:51:21;;;;;;;41.25;20.70;;;;;;;;;;5032347;28;20026;-60
2023/04/29 05:53:47;;;;;;;41.53;19.88;;;;;;;;;;5030690;28;20057;-61
2023/04/29 05:56:12;;;;;;;39.92;21.10;;;;;;;;;;5031015;28;20041;-62
2023/04/29 05:58:37;;;;;;;38.20;20.50;;;;;;;;;;5031153;28;20108;-62
2023/04/29 06:01:03;;;;;;;37.65;19.70;;;;;;;;;;5031989;28;20033;-61
2023/04/29 06:03:29;;;;;;;37.67;20.08;;;;;;;;;;5029778;28;20033;-60
2023/04/29 06:05:55;;;;;;;37.45;19.35;;;;;;;;;;5029110;28;20476;-60
2023/04/29 06:08:20;;;;;;;38.72;20.83;;;;;;;;;;5030665;28;20041;-61
2023/04/29 06:10:46;;;;;;;37.33;18.67;;;;;;;;;;5030754;28;20120;-61
2023/04/29 06:13:12;;;;;;;36.75;19.30;;;;;;;;;;5031809;28;20121;-60
2023/04/29 06:15:37;;;;;;;38.47;20.25;;;;;;;;;;5030749;28;20044;-60
2023/04/29 06:18:03;;;;;;;40.50;19.80;;;;;;;;;;5031861;28;20071;-60
2023/04/29 06:20:28;;;;;;;39.90;20.35;;;;;;;;;;5030452;28;20036;-60
2023/04/29 06:22:54;;;;;;;38.38;20.35;;;;;;;;;;5030128;28;20033;-60
2023/04/29 06:25:19;;;;;;;41.28;20.60;;;;;;;;;;5028433;28;20460;-61
2023/04/29 06:27:44;;;;;;;39.28;20.30;;;;;;;;;;5031663;28;20079;-60
2023/04/29 06:30:10;;;;;;;38.13;20.33;;;;;;;;;;5030039;28;20116;-60
2023/04/29 06:32:37;;;;;;;39.05;20.40;;;;;;;;;;5029521;28;20502;-60
2023/04/29 06:35:03;;;;;;;39.80;20.95;;;;;;;;;;5027753;28;20124;-60
2023/04/29 06:37:29;;;;;;;40.92;20.83;;;;;;;;;;5031104;28;20120;-61
2023/04/29 06:39:54;;;;;;;38.00;19.90;;;;;;;;;;5031103;28;20025;-60
2023/04/29 06:42:20;;;;;;;41.22;20.77;;;;;;;;;;5027058;28;20088;-61
2023/04/29 06:44:45;;;;;;;45.35;21.23;;;;;;;;;;5032008;28;20032;-61
2023/04/29 06:47:11;;;;;;;45.97;21.95;;;;;;;;;;5020364;28;20085;-60
2023/04/29 06:49:36;;;;;;;42.53;21.73;;;;;;;;;;5011185;28;20045;-60
2023/04/29 06:52:01;;;;;;;45.30;21.27;;;;;;;;;;5018200;28;20120;-60
2023/04/29 06:54:27;;;;;;;45.35;21.45;;;;;;;;;;5034905;28;20116;-60
2023/04/29 06:56:53;;;;;;;52.90;23.02;;;;;;;;;;5026626;28;20033;-61
2023/04/29 06:59:18;;;;;;;45.22;22.17;;;;;;;;;;5014994;28;20507;-61
2023/04/29 07:01:43;;;;;;;47.63;22.85;;;;;;;;;;5011583;28;20041;-60
2023/04/29 07:04:09;;;;;;;44.53;23.02;;;;;;;;;;5010763;28;20334;-62
2023/04/29 07:06:35;;;;;;;46.42;23.13;;;;;;;;;;5012270;28;20344;-62
2023/04/29 07:09:01;;;;;;;48.65;22.52;;;;;;;;;;5019050;28;20033;-64
2023/04/29 07:11:26;;;;;;;51.85;22.77;;;;;;;;;;5031945;28;20121;-62
2023/04/29 07:13:52;;;;;;;43.83;22.55;;;;;;;;;;5031848;28;20136;-62
2023/04/29 07:16:19;;;;;;;47.95;23.02;;;;;;;;;;5030852;28;20080;-61
2023/04/29 07:18:45;;;;;;;49.20;22.88;;;;;;;;;;5031512;28;20030;-61
2023/04/29 07:21:10;;;;;;;47.08;23.25;;;;;;;;;;5030932;28;20029;-61
2023/04/29 07:23:36;;;;;;;46.65;21.95;;;;;;;;;;5031227;28;20036;-62
2023/04/29 07:26:14;;;;;;;52.45;23.13;;;;;;;;;;5025787;28;20034;-62
2023/04/29 07:28:41;;;;;;;50.13;24.15;;;;;;;;;;5035083;28;20033;-63
2023/04/29 07:31:06;;;;;;;52.33;23.35;;;;;;;;;;5030871;28;20391;-61
2023/04/29 07:33:32;;;;;;;55.65;24.92;;;;;;;;;;5030246;28;20034;-61
2023/04/29 07:35:58;;;;;;;51.85;23.80;;;;;;;;;;5030889;28;20031;-61
2023/04/29 07:38:23;;;;;;;54.50;24.80;;;;;;;;;;5031794;28;20068;-61
2023/04/29 07:40:49;;;;;;;54.63;24.42;;;;;;;;;;5031539;28;20117;-61
2023/04/29 07:43:14;;;;;;;48.47;23.98;;;;;;;;;;5028172;28;20029;-61
2023/04/29 07:45:40;;;;;;;54.22;24.80;;;;;;;;;;5030012;28;20056;-61
2023/04/29 07:48:05;;;;;;;53.63;24.75;;;;;;;;;;5017835;28;20038;-61
2023/04/29 07:50:33;;;;;;;53.67;24.65;;;;;;;;;;5031408;28;20034;-61
2023/04/29 07:53:00;;;;;;;55.75;24.65;;;;;;;;;;5029705;28;20030;-61
2023/04/29 07:55:26;;;;;;;50.72;23.77;;;;;;;;;;5031629;28;20056;-61
2023/04/29 07:57:52;;;;;;;67.40;26.85;;;;;;;;;;5030850;28;20076;-61
2023/04/29 08:00:18;;;;;;;52.58;25.05;;;;;;;;;;5028045;28;20032;-61
2023/04/29 08:02:44;;;;;;;55.50;24.30;;;;;;;;;;5024355;28;20033;-62
2023/04/29 08:05:09;;;;;;;59.08;24.92;;;;;;;;;;5028853;28;20112;-61
2023/04/29 08:07:35;;;;;;;53.25;24.83;;;;;;;;;;5029706;28;20124;-62
2023/04/29 08:10:00;;;;;;;56.72;24.75;;;;;;;;;;5030524;28;20029;-61
2023/04/29 08:12:26;;;;;;;57.92;24.67;;;;;;;;;;5029974;28;20564;-61
2023/04/29 08:14:51;;;;;;;59.88;23.85;;;;;;;;;;5030481;28;20076;-61
2023/04/29 08:17:17;;;;;;;57.00;24.20;;;;;;;;;;5025647;28;20029;-61
2023/04/29 08:19:42;;;;;;;54.75;24.20;;;;;;;;;;5030592;28;20534;-61
2023/04/29 08:22:10;;;;;;;52.42;25.45;;;;;;;;;;5029311;28;20035;-61
2023/04/29 08:24:35;;;;;;;57.70;24.50;;;;;;;;;;5034622;28;20456;-61
2023/04/29 08:27:00;;;;;;;53.17;23.73;;;;;;;;;;5030619;28;20113;-61
2023/04/29 08:29:26;;;;;;;51.92;23.52;;;;;;;;;;5034076;28;20460;-61
2023/04/29 08:31:52;;;;;;;51.53;24.23;;;;;;;;;;5014462;28;20038;-61
2023/04/29 08:34:17;;;;;;;47.10;23.52;;;;;;;;;;5027763;28;20630;-62
2023/04/29 08:36:43;;;;;;;52.20;24.20;;;;;;;;;;5033720;28;20426;-61
2023/04/29 08:39:08;;;;;;;48.85;23.40;;;;;;;;;;5032880;28;20026;-62
2023/04/29 08:41:35;;;;;;;48.35;23.10;;;;;;;;;;5034350;28;20549;-61
2023/04/29 08:44:01;;;;;;;52.47;24.38;;;;;;;;;;5032851;28;20041;-62
2023/04/29 08:46:27;;;;;;;53.25;23.55;;;;;;;;;;5032599;28;20060;-61
2023/04/29 08:48:55;;;;;;;53.47;24.42;;;;;;;;;;5034306;28;20045;-61
2023/04/29 08:51:20;;;;;;;47.50;23.75;;;;;;;;;;5032329;28;20030;-62
2023/04/29 08:53:46;;;;;;;50.05;23.58;;;;;;;;;;5031361;28;20029;-61
2023/04/29 08:56:16;;;;;;;51.03;23.85;;;;;;;;;;5033482;28;20037;-59
2023/04/29 08:58:42;;;;;;;50.53;23.33;;;;;;;;;;5031835;28;20103;-62
2023/04/29 09:01:09;;;;;;;53.42;24.52;;;;;;;;;;5027590;28;20052;-63
2023/04/29 09:03:46;;;;;;;51.30;23.88;;;;;;;;;;5021592;28;20108;-62
2023/04/29 09:06:13;;;;;;;48.10;23.25;;;;;;;;;;5031020;28;20108;-62
2023/04/29 09:08:39;;;;;;;50.00;23.88;;;;;;;;;;5033899;28;20033;-62
2023/04/29 09:11:08;;;;;;;48.05;23.10;;;;;;;;;;5031751;28;20396;-61
2023/04/29 09:13:33;;;;;;;43.67;22.65;;;;;;;;;;5029556;28;20034;-62
2023/04/29 09:15:59;;;;;;;44.42;22.23;;;;;;;;;;5026196;28;20100;-62
2023/04/29 09:18:44;;;;;;;45.53;21.65;;;;;;;;;;5013589;28;20034;-62
2023/04/29 09:21:21;;;;;;;44.42;22.52;;;;;;;;;;5031920;28;20029;-62
2023/04/29 09:23:48;;;;;;;38.80;20.25;;;;;;;;;;5033308;28;20040;-61
2023/04/29 09:26:14;;;;;;;36.97;20.58;;;;;;;;;;5032371;28;20045;-62
2023/04/29 09:28:42;;;;;;;37.10;20.92;;;;;;;;;;5033329;28;20040;-61
2023/04/29 09:31:08;;;;;;;37.42;21.15;;;;;;;;;;5023506;28;20108;-61
2023/04/29 09:33:50;;;;;;;38.45;20.27;;;;;;;;;;5029550;28;20153;-61
2023/04/29 09:36:38;;;;;;;39.03;20.38;;;;;;;;;;5026767;28;20029;-62
2023/04/29 09:39:11;;;;;;;39.50;19.85;;;;;;;;;;5031718;28;20041;-61
2023/04/29 09:42:03;;;;;;;38.17;21.08;;;;;;;;;;5031326;28;20025;-62
2023/04/29 09:44:32;;;;;;;38.63;19.80;;;;;;;;;;5026569;28;20049;-61
2023/04/29 09:47:01;;;;;;;37.00;20.20;;;;;;;;;;5023880;28;20040;-61
2023/04/29 09:49:29;;;;;;;33.20;19.38;;;;;;;;;;5021029;28;20029;-61
2023/04/29 09:51:57;;;;;;;33.38;19.52;;;;;;;;;;5032989;28;20025;-61
2023/04/29 09:54:25;;;;;;;31.70;19.65;;;;;;;;;;5029366;28;20061;-62
2023/04/29 09:56:52;;;;;;;33.25;18.85;;;;;;;;;;5027244;28;20117;-61
2023/04/29 09:59:21;;;;;;;37.33;19.70;;;;;;;;;;5031589;28;20025;-61
2023/04/29 10:01:52;;;;;;;28.45;18.52;;;;;;;;;;5030543;28;20033;-62
2023/04/29 10:04:18;;;;;;;;;;;;;;;;;;5032052;28;20463;-61
2023/04/29 10:06:47;;;;;;;29.70;18.15;;;;;;;;;;5029261;28;19960;-62
2023/04/29 10:09:16;;;;;;;30.95;18.70;;;;;;;;;;5026392;28;20026;-64
2023/04/29 10:11:43;;;;;;;30.00;18.08;;;;;;;;;;5029481;28;20108;-62
2023/04/29 10:14:14;;;;;;;31.35;18.38;;;;;;;;;;5029077;28;20068;-63
2023/04/29 10:16:47;;;;;;;29.77;17.88;;;;;;;;;;5031512;28;20036;-62
2023/04/29 10:19:18;;;;;;;29.20;17.08;;;;;;;;;;5030062;28;20037;-62
2023/04/29 10:21:43;;;;;;;;;;;;;;;;;;5032286;28;20029;-61
2023/04/29 10:24:12;;;;;;;27.30;17.10;;;;;;;;;;5029791;28;19959;-62
2023/04/29 10:26:40;;;;;;;29.25;17.63;;;;;;;;;;5032231;28;20428;-63
2023/04/29 10:29:07;;;;;;;33.55;18.33;;;;;;;;;;5028838;28;20057;-64
2023/04/29 10:31:35;;;;;;;24.65;16.98;;;;;;;;;;5027495;28;20034;-62
2023/04/29 10:34:00;;;;;;;28.00;17.30;;;;;;;;;;5027675;28;20153;-63
2023/04/29 10:36:29;;;;;;;23.55;15.35;;;;;;;;;;5029939;28;21070;-62
2023/04/29 10:38:57;;;;;;;29.75;16.30;;;;;;;;;;5045920;28;20115;-62
2023/04/29 10:41:27;;;;;;;21.75;15.38;;;;;;;;;;5050699;28;20640;-62
2023/04/29 10:43:54;;;;;;;24.45;15.00;;;;;;;;;;5052005;28;20025;-62
2023/04/29 10:46:22;;;;;;;21.73;14.82;;;;;;;;;;5036484;28;20041;-62
2023/04/29 10:48:51;;;;;;;22.23;15.60;;;;;;;;;;5032380;28;20128;-62
2023/04/29 10:51:44;;;;;;;20.90;14.95;;;;;;;;;;5030678;28;20038;-69
2023/04/29 10:54:17;;;;;;;21.33;14.07;;;;;;;;;;5026565;28;20042;-66
2023/04/29 10:56:46;;;;;;;20.98;13.95;;;;;;;;;;5032253;28;20037;-65
2023/04/29 10:59:14;;;;;;;20.50;14.20;;;;;;;;;;5031171;28;20030;-66
2023/04/29 11:01:46;;;;;;;21.50;13.15;;;;;;;;;;5030834;28;20026;-66
2023/04/29 11:04:12;;;;;;;17.63;12.90;;;;;;;;;;5030890;28;20025;-67
2023/04/29 11:06:40;;;;;;;18.60;13.20;;;;;;;;;;5031850;28;20095;-67
2023/04/29 11:09:26;;;;;;;17.05;12.45;;;;;;;;;;5031653;28;20088;-70
2023/04/29 11:11:55;;;;;;;19.75;14.27;;;;;;;;;;5032132;28;20029;-66
2023/04/29 11:14:24;;;;;;;19.77;13.25;;;;;;;;;;5031116;28;20526;-67
2023/04/29 11:16:58;;;;;;;18.63;12.75;;;;;;;;;;5031688;28;20033;-67
2023/04/29 11:19:25;;;;;;;17.33;11.73;;;;;;;;;;5030863;28;20033;-66
2023/04/29 11:22:13;;;;;;;16.35;11.95;;;;;;;;;;5031838;28;20034;-67
2023/04/29 11:24:48;;;;;;;16.63;11.60;;;;;;;;;;5026969;28;20061;-67
2023/04/29 11:27:15;;;;;;;16.90;11.57;;;;;;;;;;5027766;28;20116;-67
2023/04/29 11:29:41;;;;;;;18.30;12.20;;;;;;;;;;5031652;28;20075;-66
2023/04/29 11:32:07;;;;;;;18.67;12.73;;;;;;;;;;5030370;28;20034;-63
2023/04/29 11:34:32;;;;;;;16.90;12.43;;;;;;;;;;5028721;28;20026;-62
2023/04/29 11:36:57;;;;;;;17.50;11.20;;;;;;;;;;5029174;28;20132;-62
2023/04/29 11:39:23;;;;;;;16.25;11.18;;;;;;;;;;5030396;28;20038;-62
2023/04/29 11:41:49;;;;;;;16.20;10.63;;;;;;;;;;5030252;28;20045;-62
2023/04/29 11:44:22;;;;;;;14.38;10.95;;;;;;;;;;5029104;28;20373;-62
2023/04/29 11:46:48;;;;;;;13.95;10.63;;;;;;;;;;5031210;28;20412;-65
2023/04/29 11:49:14;;;;;;;14.05;10.68;;;;;;;;;;5020848;28;20065;-64
2023/04/29 11:51:39;;;;;;;16.77;12.23;;;;;;;;;;5018155;28;20469;-64
2023/04/29 11:54:06;;;;;;;15.55;10.75;;;;;;;;;;5041606;28;20078;-64
2023/04/29 11:56:31;;;;;;;17.77;10.98;;;;;;;;;;5047721;28;20032;-64
2023/04/29 11:58:57;;;;;;;13.15;9.63;;;;;;;;;;5035197;28;20059;-64
2023/04/29 12:01:24;;;;;;;14.93;9.88;;;;;;;;;;5030435;28;20036;-64
2023/04/29 12:03:49;;;;;;;16.98;10.75;;;;;;;;;;5028498;28;20507;-64
2023/04/29 12:06:15;;;;;;;15.88;10.73;;;;;;;;;;5030335;28;20037;-64
2023/04/29 12:08:40;;;;;;;17.27;10.50;;;;;;;;;;5029300;28;20109;-64
2023/04/29 12:11:06;;;;;;;15.13;10.13;;;;;;;;;;5017963;28;20042;-64
2023/04/29 12:13:35;;;;;;;13.32;10.13;;;;;;;;;;5029482;28;20084;-65
2023/04/29 12:16:01;;;;;;;14.32;9.80;;;;;;;;;;5032261;28;20041;-63
2023/04/29 12:18:27;;;;;;;13.25;9.30;;;;;;;;;;5034111;28;20029;-62
2023/04/29 12:20:54;;;;;;;12.63;9.55;;;;;;;;;;5020918;28;20468;-63
2023/04/29 12:23:22;;;;;;;13.00;8.80;;;;;;;;;;5029517;28;20041;-64
2023/04/29 12:25:53;;;;;;;15.35;8.98;;;;;;;;;;5022836;28;20157;-64
2023/04/29 12:28:20;;;;;;;13.43;9.38;;;;;;;;;;5022071;28;20037;-63
2023/04/29 12:30:46;;;;;;;13.32;8.93;;;;;;;;;;5037073;28;20053;-62
2023/04/29 12:33:30;;;;;;;14.63;9.73;;;;;;;;;;5032649;28;20111;-61
2023/04/29 12:35:57;;;;;;;14.50;9.85;;;;;;;;;;5032903;28;20120;-62
2023/04/29 12:38:27;;;;;;;16.75;10.25;;;;;;;;;;5033674;28;20468;-62
2023/04/29 12:40:55;;;;;;;15.65;10.15;;;;;;;;;;5033209;28;20112;-62
2023/04/29 12:43:32;;;;;;;14.52;8.55;;;;;;;;;;5032080;28;20124;-62
2023/04/29 12:46:07;;;;;;;12.40;8.57;;;;;;;;;;5032659;28;20052;-62
2023/04/29 12:48:37;;;;;;;13.73;9.40;;;;;;;;;;5028169;28;20029;-61
2023/04/29 12:51:03;;;;;;;13.43;8.98;;;;;;;;;;5021255;28;20471;-61
2023/04/29 12:53:29;;;;;;;13.75;10.18;;;;;;;;;;5032615;28;20034;-63
2023/04/29 12:55:55;;;;;;;15.45;9.98;;;;;;;;;;5034376;28;20041;-64
2023/04/29 12:58:21;;;;;;;13.70;9.70;;;;;;;;;;5032724;28;20084;-61
2023/04/29 13:00:46;;;;;;;14.52;10.00;;;;;;;;;;5049448;28;20033;-64
2023/04/29 13:03:12;;;;;;;14.27;10.15;;;;;;;;;;5033107;28;20093;-63
2023/04/29 13:05:37;;;;;;;14.48;9.80;;;;;;;;;;5033154;28;20108;-62
2023/04/29 13:08:07;;;;;;;14.32;9.60;;;;;;;;;;5027013;28;20372;-61
2023/04/29 13:10:33;;;;;;;14.40;9.70;;;;;;;;;;5032809;28;20310;-62
2023/04/29 13:12:58;;;;;;;12.80;9.25;;;;;;;;;;5033279;28;20034;-62
2023/04/29 13:15:24;;;;;;;16.13;9.77;;;;;;;;;;5032992;28;20041;-61
2023/04/29 13:17:50;;;;;;;15.80;9.70;;;;;;;;;;5029811;28;20025;-62
2023/04/29 13:20:16;;;;;;;13.80;10.25;;;;;;;;;;5031925;28;20104;-61
2023/04/29 13:22:43;;;;;;;13.80;9.88;;;;;;;;;;5029629;28;20088;-62
2023/04/29 13:25:09;;;;;;;13.48;10.18;;;;;;;;;;5031533;28;20111;-62
2023/04/29 13:27:35;;;;;;;13.45;9.57;;;;;;;;;;5048208;28;20043;-63
2023/04/29 13:30:00;;;;;;;12.65;8.95;;;;;;;;;;5050288;28;20029;-62
2023/04/29 13:32:26;;;;;;;14.05;9.52;;;;;;;;;;5032527;28;20087;-63
2023/04/29 13:34:52;;;;;;;12.27;8.88;;;;;;;;;;5032913;28;20079;-63
2023/04/29 13:37:18;;;;;;;11.00;7.57;;;;;;;;;;5032541;28;20057;-62
2023/04/29 13:39:44;;;;;;;10.40;7.68;;;;;;;;;;5033029;28;20045;-62
2023/04/29 13:42:09;;;;;;;11.02;7.03;;;;;;;;;;5030417;28;20486;-61
2023/04/29 13:44:35;;;;;;;11.18;7.32;;;;;;;;;;5052486;28;20671;-61
2023/04/29 13:47:02;;;;;;;10.07;7.07;;;;;;;;;;5033029;28;20037;-62
2023/04/29 13:49:27;;;;;;;11.38;7.40;;;;;;;;;;5021024;28;20041;-62
2023/04/29 13:51:53;;;;;;;13.65;7.80;;;;;;;;;;5027107;28;20051;-64
2023/04/29 13:54:19;;;;;;;14.43;8.98;;;;;;;;;;5023340;28;20464;-68
2023/04/29 13:56:46;;;;;;;13.10;8.82;;;;;;;;;;5031212;28;20511;-64
2023/04/29 13:59:12;;;;;;;14.95;8.85;;;;;;;;;;5032362;28;20038;-64
2023/04/29 14:01:37;;;;;;;11.70;8.13;;;;;;;;;;5031122;28;20033;-64
2023/04/29 14:04:03;;;;;;;11.82;8.35;;;;;;;;;;5032923;28;20033;-63
2023/04/29 14:06:30;;;;;;;10.55;8.00;;;;;;;;;;5030951;28;20079;-63
2023/04/29 14:08:56;;;;;;;12.95;8.73;;;;;;;;;;5036988;28;20029;-63
2023/04/29 14:11:21;;;;;;;12.10;8.40;;;;;;;;;;5030323;28;20110;-62
2023/04/29 14:13:47;;;;;;;14.25;8.75;;;;;;;;;;5026700;28;20375;-62
2023/04/29 14:16:12;;;;;;;11.35;8.10;;;;;;;;;;5029709;28;20071;-63
2023/04/29 14:18:37;;;;;;;11.57;8.07;;;;;;;;;;5031898;28;20038;-61